sensor_id;sensor_type;location;lat;lon;timestamp;temperature;humidity
2995;DHT22;35277;49.890;8.222;2023-04-24T00:02:26;22.60;70.00
2995;DHT22;35277;49.890;8.222;2023-04-24T00:04:54;22.50;70.00
2995;DHT22;35277;49.890;8.222;2023-04-24T00:07:23;22.60;70.00
2995;DHT22;35277;49.890;8.222;2023-04-24T00:09:50;22.60;70.00
2995;DHT22;35277;49.890;8.222;2023-04-24T00:12:18;22.60;70.00
2995;DHT22;35277;49.890;8.222;2023-04-24T00:14:46;22.60;70.00
2995;DHT22;35277;49.890;8.222;2023-04-24T00:17:14;22.60;70.00
2995;DHT22;35277;49.890;8.222;2023-04-24T00:19:42;22.60;70.00
2995;DHT22;35277;49.890;8.222;2023-04-24T00:22:10;22.60;70.00
2995;DHT22;35277;49.890;8.222;2023-04-24T00:24:41;22.60;70.10
2995;DHT22;35277;49.890;8.222;2023-04-24T00:27:08;22.60;70.00
2995;DHT22;35277;49.890;8.222;2023-04-24T00:29:36;22.60;70.00
2995;DHT22;35277;49.890;8.222;2023-04-24T00:32:04;22.60;70.10
2995;DHT22;35277;49.890;8.222;2023-04-24T00:34:32;22.60;70.10
2995;DHT22;35277;49.890;8.222;2023-04-24T00:37:00;22.60;70.20
2995;DHT22;35277;49.890;8.222;2023-04-24T00:39:27;22.60;70.20
2995;DHT22;35277;49.890;8.222;2023-04-24T00:41:56;22.60;70.20
2995;DHT22;35277;49.890;8.222;2023-04-24T00:44:24;22.60;70.20
2995;DHT22;35277;49.890;8.222;2023-04-24T00:46:54;22.60;70.20
2995;DHT22;35277;49.890;8.222;2023-04-24T00:49:22;22.50;70.00
2995;DHT22;35277;49.890;8.222;2023-04-24T00:51:50;22.50;70.10
2995;DHT22;35277;49.890;8.222;2023-04-24T00:54:18;22.50;70.00
2995;DHT22;35277;49.890;8.222;2023-04-24T00:56:46;22.50;70.00
2995;DHT22;35277;49.890;8.222;2023-04-24T00:59:16;22.50;70.00
2995;DHT22;35277;49.890;8.222;2023-04-24T01:01:45;22.50;70.10
2995;DHT22;35277;49.890;8.222;2023-04-24T01:04:13;22.50;70.10
2995;DHT22;35277;49.890;8.222;2023-04-24T01:06:43;22.50;70.00
2995;DHT22;35277;49.890;8.222;2023-04-24T01:09:12;22.50;70.10
2995;DHT22;35277;49.890;8.222;2023-04-24T01:11:41;22.50;70.10
2995;DHT22;35277;49.890;8.222;2023-04-24T01:14:11;22.50;70.10
2995;DHT22;35277;49.890;8.222;2023-04-24T01:16:42;22.50;70.10
2995;DHT22;35277;49.890;8.222;2023-04-24T01:19:10;22.50;70.10
2995;DHT22;35277;49.890;8.222;2023-04-24T01:21:39;22.50;70.00
2995;DHT22;35277;49.890;8.222;2023-04-24T01:24:08;22.50;70.00
2995;DHT22;35277;49.890;8.222;2023-04-24T01:26:37;22.50;70.10
2995;DHT22;35277;49.890;8.222;2023-04-24T01:29:05;22.50;70.00
2995;DHT22;35277;49.890;8.222;2023-04-24T01:31:34;22.50;70.00
2995;DHT22;35277;49.890;8.222;2023-04-24T01:34:02;22.50;70.00
2995;DHT22;35277;49.890;8.222;2023-04-24T01:36:32;22.50;70.10
2995;DHT22;35277;49.890;8.222;2023-04-24T01:39:01;22.50;70.00
2995;DHT22;35277;49.890;8.222;2023-04-24T01:41:31;22.50;70.00
2995;DHT22;35277;49.890;8.222;2023-04-24T01:43:59;22.50;70.90
2995;DHT22;35277;49.890;8.222;2023-04-24T01:46:27;22.50;70.10
2995;DHT22;35277;49.890;8.222;2023-04-24T01:48:57;22.50;70.00
2995;DHT22;35277;49.890;8.222;2023-04-24T01:51:26;22.50;70.00
2995;DHT22;35277;49.890;8.222;2023-04-24T01:53:56;22.50;70.00
2995;DHT22;35277;49.890;8.222;2023-04-24T01:56:24;22.50;70.10
2995;DHT22;35277;49.890;8.222;2023-04-24T01:58:54;22.50;70.10
2995;DHT22;35277;49.890;8.222;2023-04-24T02:01:24;22.50;70.10
2995;DHT22;35277;49.890;8.222;2023-04-24T02:03:52;22.50;70.10
2995;DHT22;35277;49.890;8.222;2023-04-24T02:06:20;22.50;70.10
2995;DHT22;35277;49.890;8.222;2023-04-24T02:08:48;22.50;70.20
2995;DHT22;35277;49.890;8.222;2023-04-24T02:11:16;22.50;70.20
2995;DHT22;35277;49.890;8.222;2023-04-24T02:13:44;22.50;70.20
2995;DHT22;35277;49.890;8.222;2023-04-24T02:16:13;22.50;70.20
2995;DHT22;35277;49.890;8.222;2023-04-24T02:18:41;22.50;70.20
2995;DHT22;35277;49.890;8.222;2023-04-24T02:21:08;22.50;70.20
2995;DHT22;35277;49.890;8.222;2023-04-24T02:23:36;22.50;70.20
2995;DHT22;35277;49.890;8.222;2023-04-24T02:26:04;22.50;70.20
2995;DHT22;35277;49.890;8.222;2023-04-24T02:28:32;22.50;70.30
2995;DHT22;35277;49.890;8.222;2023-04-24T02:31:00;22.50;70.30
2995;DHT22;35277;49.890;8.222;2023-04-24T02:33:29;22.50;70.20
2995;DHT22;35277;49.890;8.222;2023-04-24T02:35:57;22.50;70.30
2995;DHT22;35277;49.890;8.222;2023-04-24T02:38:24;22.50;70.30
2995;DHT22;35277;49.890;8.222;2023-04-24T02:40:52;22.50;70.30
2995;DHT22;35277;49.890;8.222;2023-04-24T02:43:20;22.50;70.20
2995;DHT22;35277;49.890;8.222;2023-04-24T02:45:48;22.50;70.20
2995;DHT22;35277;49.890;8.222;2023-04-24T02:48:16;22.50;70.30
2995;DHT22;35277;49.890;8.222;2023-04-24T02:50:46;22.50;70.30
2995;DHT22;35277;49.890;8.222;2023-04-24T02:53:14;22.50;70.30
2995;DHT22;35277;49.890;8.222;2023-04-24T02:55:42;22.50;70.30
2995;DHT22;35277;49.890;8.222;2023-04-24T02:58:09;22.50;70.30
2995;DHT22;35277;49.890;8.222;2023-04-24T03:00:39;22.50;70.30
2995;DHT22;35277;49.890;8.222;2023-04-24T03:03:07;22.50;70.40
2995;DHT22;35277;49.890;8.222;2023-04-24T03:05:35;22.50;70.40
2995;DHT22;35277;49.890;8.222;2023-04-24T03:08:04;22.50;70.40
2995;DHT22;35277;49.890;8.222;2023-04-24T03:10:32;22.50;70.40
2995;DHT22;35277;49.890;8.222;2023-04-24T03:13:00;22.50;70.40
2995;DHT22;35277;49.890;8.222;2023-04-24T03:15:28;22.50;70.40
2995;DHT22;35277;49.890;8.222;2023-04-24T03:17:55;22.50;70.40
2995;DHT22;35277;49.890;8.222;2023-04-24T03:20:23;22.50;70.40
2995;DHT22;35277;49.890;8.222;2023-04-24T03:22:52;22.50;70.40
2995;DHT22;35277;49.890;8.222;2023-04-24T03:25:22;22.50;70.40
2995;DHT22;35277;49.890;8.222;2023-04-24T03:27:49;22.50;70.40
2995;DHT22;35277;49.890;8.222;2023-04-24T03:30:38;22.50;70.40
2995;DHT22;35277;49.890;8.222;2023-04-24T03:33:07;22.50;70.50
2995;DHT22;35277;49.890;8.222;2023-04-24T03:35:41;22.50;70.40
2995;DHT22;35277;49.890;8.222;2023-04-24T03:38:11;22.40;70.30
2995;DHT22;35277;49.890;8.222;2023-04-24T03:40:43;22.50;70.50
2995;DHT22;35277;49.890;8.222;2023-04-24T03:43:49;22.50;70.50
2995;DHT22;35277;49.890;8.222;2023-04-24T03:46:17;22.50;70.40
2995;DHT22;35277;49.890;8.222;2023-04-24T03:48:51;22.50;70.50
2995;DHT22;35277;49.890;8.222;2023-04-24T03:51:22;22.50;70.50
2995;DHT22;35277;49.890;8.222;2023-04-24T03:53:54;22.50;70.50
2995;DHT22;35277;49.890;8.222;2023-04-24T03:56:25;22.50;70.50
2995;DHT22;35277;49.890;8.222;2023-04-24T03:58:53;22.50;70.50
2995;DHT22;35277;49.890;8.222;2023-04-24T04:01:22;22.50;70.50
2995;DHT22;35277;49.890;8.222;2023-04-24T04:03:57;22.50;70.50
2995;DHT22;35277;49.890;8.222;2023-04-24T04:06:26;22.50;70.50
2995;DHT22;35277;49.890;8.222;2023-04-24T04:08:56;22.40;70.40
2995;DHT22;35277;49.890;8.222;2023-04-24T04:11:25;22.50;70.60
2995;DHT22;35277;49.890;8.222;2023-04-24T04:13:53;22.40;70.50
2995;DHT22;35277;49.890;8.222;2023-04-24T04:16:21;22.50;70.60
2995;DHT22;35277;49.890;8.222;2023-04-24T04:18:53;22.50;70.50
2995;DHT22;35277;49.890;8.222;2023-04-24T04:21:21;22.40;70.40
2995;DHT22;35277;49.890;8.222;2023-04-24T04:23:54;22.40;70.40
2995;DHT22;35277;49.890;8.222;2023-04-24T04:26:31;22.40;70.30
2995;DHT22;35277;49.890;8.222;2023-04-24T04:29:04;22.40;70.30
2995;DHT22;35277;49.890;8.222;2023-04-24T04:31:36;22.40;70.20
2995;DHT22;35277;49.890;8.222;2023-04-24T04:34:09;22.40;70.20
2995;DHT22;35277;49.890;8.222;2023-04-24T04:36:38;22.40;70.20
2995;DHT22;35277;49.890;8.222;2023-04-24T04:39:36;22.40;70.20
2995;DHT22;35277;49.890;8.222;2023-04-24T04:42:10;22.40;70.10
2995;DHT22;35277;49.890;8.222;2023-04-24T04:44:40;22.40;70.10
2995;DHT22;35277;49.890;8.222;2023-04-24T04:47:15;22.40;70.00
2995;DHT22;35277;49.890;8.222;2023-04-24T04:49:44;22.40;70.00
2995;DHT22;35277;49.890;8.222;2023-04-24T04:52:18;22.40;70.00
2995;DHT22;35277;49.890;8.222;2023-04-24T04:54:50;22.40;70.00
2995;DHT22;35277;49.890;8.222;2023-04-24T04:57:20;22.40;70.10
2995;DHT22;35277;49.890;8.222;2023-04-24T04:59:49;22.40;70.10
2995;DHT22;35277;49.890;8.222;2023-04-24T05:02:28;22.40;70.60
2995;DHT22;35277;49.890;8.222;2023-04-24T05:04:56;22.40;71.00
2995;DHT22;35277;49.890;8.222;2023-04-24T05:07:25;22.50;71.40
2995;DHT22;35277;49.890;8.222;2023-04-24T05:09:54;22.50;71.70
2995;DHT22;35277;49.890;8.222;2023-04-24T05:12:23;22.50;71.80
2995;DHT22;35277;49.890;8.222;2023-04-24T05:14:52;22.50;71.80
2995;DHT22;35277;49.890;8.222;2023-04-24T05:17:21;22.50;71.80
2995;DHT22;35277;49.890;8.222;2023-04-24T05:19:50;22.50;71.70
2995;DHT22;35277;49.890;8.222;2023-04-24T05:22:18;22.50;71.70
2995;DHT22;35277;49.890;8.222;2023-04-24T05:24:50;22.50;71.70
2995;DHT22;35277;49.890;8.222;2023-04-24T05:27:32;22.50;71.60
2995;DHT22;35277;49.890;8.222;2023-04-24T05:30:04;22.60;71.70
2995;DHT22;35277;49.890;8.222;2023-04-24T05:32:33;22.60;71.70
2995;DHT22;35277;49.890;8.222;2023-04-24T05:35:01;22.60;71.70
2995;DHT22;35277;49.890;8.222;2023-04-24T05:37:29;22.50;71.50
2995;DHT22;35277;49.890;8.222;2023-04-24T05:39:57;22.50;71.50
2995;DHT22;35277;49.890;8.222;2023-04-24T05:42:27;22.60;71.50
2995;DHT22;35277;49.890;8.222;2023-04-24T05:44:57;22.60;71.50
2995;DHT22;35277;49.890;8.222;2023-04-24T05:47:26;22.60;71.50
2995;DHT22;35277;49.890;8.222;2023-04-24T05:49:54;22.50;71.40
2995;DHT22;35277;49.890;8.222;2023-04-24T05:52:22;22.60;71.50
2995;DHT22;35277;49.890;8.222;2023-04-24T05:54:50;22.60;71.30
2995;DHT22;35277;49.890;8.222;2023-04-24T05:57:22;22.50;71.20
2995;DHT22;35277;49.890;8.222;2023-04-24T05:59:59;22.60;71.20
2995;DHT22;35277;49.890;8.222;2023-04-24T06:02:28;22.60;71.10
2995;DHT22;35277;49.890;8.222;2023-04-24T06:04:59;22.50;71.00
2995;DHT22;35277;49.890;8.222;2023-04-24T06:07:27;22.50;70.90
2995;DHT22;35277;49.890;8.222;2023-04-24T06:09:55;22.50;70.80
2995;DHT22;35277;49.890;8.222;2023-04-24T06:12:23;22.60;70.80
2995;DHT22;35277;49.890;8.222;2023-04-24T06:15:01;22.50;70.70
2995;DHT22;35277;49.890;8.222;2023-04-24T06:17:48;22.50;70.60
2995;DHT22;35277;49.890;8.222;2023-04-24T06:20:17;22.50;70.70
2995;DHT22;35277;49.890;8.222;2023-04-24T06:22:45;22.50;70.60
2995;DHT22;35277;49.890;8.222;2023-04-24T06:25:13;22.50;70.50
2995;DHT22;35277;49.890;8.222;2023-04-24T06:27:41;22.50;70.50
2995;DHT22;35277;49.890;8.222;2023-04-24T06:30:10;22.50;70.40
2995;DHT22;35277;49.890;8.222;2023-04-24T06:32:39;22.50;70.40
2995;DHT22;35277;49.890;8.222;2023-04-24T06:35:07;22.50;70.40
2995;DHT22;35277;49.890;8.222;2023-04-24T06:37:36;22.50;70.40
2995;DHT22;35277;49.890;8.222;2023-04-24T06:40:05;22.50;70.30
2995;DHT22;35277;49.890;8.222;2023-04-24T06:42:35;22.60;70.40
2995;DHT22;35277;49.890;8.222;2023-04-24T06:45:04;22.60;70.30
2995;DHT22;35277;49.890;8.222;2023-04-24T06:47:33;22.50;70.20
2995;DHT22;35277;49.890;8.222;2023-04-24T06:50:01;22.60;70.20
2995;DHT22;35277;49.890;8.222;2023-04-24T06:52:29;22.50;70.00
2995;DHT22;35277;49.890;8.222;2023-04-24T06:55:00;22.50;70.00
2995;DHT22;35277;49.890;8.222;2023-04-24T06:57:29;22.50;70.00
2995;DHT22;35277;49.890;8.222;2023-04-24T06:59:57;22.50;70.10
2995;DHT22;35277;49.890;8.222;2023-04-24T07:02:25;22.60;70.20
2995;DHT22;35277;49.890;8.222;2023-04-24T07:04:54;22.50;70.10
2995;DHT22;35277;49.890;8.222;2023-04-24T07:07:22;22.60;70.20
2995;DHT22;35277;49.890;8.222;2023-04-24T07:09:51;22.60;71.00
2995;DHT22;35277;49.890;8.222;2023-04-24T07:12:19;22.60;70.20
2995;DHT22;35277;49.890;8.222;2023-04-24T07:14:47;22.60;70.20
2995;DHT22;35277;49.890;8.222;2023-04-24T07:17:15;22.60;70.20
2995;DHT22;35277;49.890;8.222;2023-04-24T07:19:43;22.50;70.10
2995;DHT22;35277;49.890;8.222;2023-04-24T07:22:13;22.50;70.10
2995;DHT22;35277;49.890;8.222;2023-04-24T07:24:43;22.60;70.20
2995;DHT22;35277;49.890;8.222;2023-04-24T07:27:11;22.60;70.20
2995;DHT22;35277;49.890;8.222;2023-04-24T07:29:41;22.50;70.00
2995;DHT22;35277;49.890;8.222;2023-04-24T07:32:09;22.60;70.10
2995;DHT22;35277;49.890;8.222;2023-04-24T07:34:37;22.60;70.10
2995;DHT22;35277;49.890;8.222;2023-04-24T07:37:05;22.60;70.00
2995;DHT22;35277;49.890;8.222;2023-04-24T07:39:34;22.60;70.10
2995;DHT22;35277;49.890;8.222;2023-04-24T07:42:02;22.60;70.00
2995;DHT22;35277;49.890;8.222;2023-04-24T07:44:29;22.60;70.00
2995;DHT22;35277;49.890;8.222;2023-04-24T07:46:58;22.60;70.00
2995;DHT22;35277;49.890;8.222;2023-04-24T07:49:26;22.60;70.00
2995;DHT22;35277;49.890;8.222;2023-04-24T07:51:54;22.60;69.90
2995;DHT22;35277;49.890;8.222;2023-04-24T07:54:22;22.60;69.90
2995;DHT22;35277;49.890;8.222;2023-04-24T07:56:51;22.60;69.80
2995;DHT22;35277;49.890;8.222;2023-04-24T07:59:18;22.60;69.80
2995;DHT22;35277;49.890;8.222;2023-04-24T08:01:46;22.60;69.80
2995;DHT22;35277;49.890;8.222;2023-04-24T08:04:14;22.60;69.80
2995;DHT22;35277;49.890;8.222;2023-04-24T08:06:42;22.60;69.80
2995;DHT22;35277;49.890;8.222;2023-04-24T08:09:10;22.60;69.70
2995;DHT22;35277;49.890;8.222;2023-04-24T08:11:38;22.60;69.80
2995;DHT22;35277;49.890;8.222;2023-04-24T08:14:07;22.60;69.80
2995;DHT22;35277;49.890;8.222;2023-04-24T08:16:35;22.60;69.80
2995;DHT22;35277;49.890;8.222;2023-04-24T08:19:03;22.60;69.80
2995;DHT22;35277;49.890;8.222;2023-04-24T08:21:31;22.60;69.80
2995;DHT22;35277;49.890;8.222;2023-04-24T08:23:59;22.60;69.80
2995;DHT22;35277;49.890;8.222;2023-04-24T08:26:27;22.60;69.80
2995;DHT22;35277;49.890;8.222;2023-04-24T08:28:54;22.60;69.80
2995;DHT22;35277;49.890;8.222;2023-04-24T08:31:23;22.70;69.90
2995;DHT22;35277;49.890;8.222;2023-04-24T08:33:52;22.60;69.80
2995;DHT22;35277;49.890;8.222;2023-04-24T08:36:20;22.70;69.90
2995;DHT22;35277;49.890;8.222;2023-04-24T08:38:52;22.70;69.90
2995;DHT22;35277;49.890;8.222;2023-04-24T08:41:20;22.70;69.90
2995;DHT22;35277;49.890;8.222;2023-04-24T08:43:51;22.70;69.90
2995;DHT22;35277;49.890;8.222;2023-04-24T08:46:19;22.70;69.90
2995;DHT22;35277;49.890;8.222;2023-04-24T08:48:49;22.70;70.10
2995;DHT22;35277;49.890;8.222;2023-04-24T08:51:17;22.70;70.10
2995;DHT22;35277;49.890;8.222;2023-04-24T08:53:46;22.70;70.20
2995;DHT22;35277;49.890;8.222;2023-04-24T08:56:14;22.70;70.20
2995;DHT22;35277;49.890;8.222;2023-04-24T08:58:43;22.70;70.10
2995;DHT22;35277;49.890;8.222;2023-04-24T09:01:12;22.70;69.90
2995;DHT22;35277;49.890;8.222;2023-04-24T09:03:40;22.70;69.70
2995;DHT22;35277;49.890;8.222;2023-04-24T09:06:10;22.70;69.70
2995;DHT22;35277;49.890;8.222;2023-04-24T09:08:39;22.70;69.50
2995;DHT22;35277;49.890;8.222;2023-04-24T09:11:09;22.70;69.40
2995;DHT22;35277;49.890;8.222;2023-04-24T09:13:38;22.70;69.40
2995;DHT22;35277;49.890;8.222;2023-04-24T09:16:06;22.70;69.30
2995;DHT22;35277;49.890;8.222;2023-04-24T09:18:34;22.70;69.30
2995;DHT22;35277;49.890;8.222;2023-04-24T09:21:05;22.70;69.20
2995;DHT22;35277;49.890;8.222;2023-04-24T09:23:35;22.70;69.30
2995;DHT22;35277;49.890;8.222;2023-04-24T09:26:04;22.70;69.20
2995;DHT22;35277;49.890;8.222;2023-04-24T09:28:35;22.70;69.20
2995;DHT22;35277;49.890;8.222;2023-04-24T09:31:05;22.70;69.20
2995;DHT22;35277;49.890;8.222;2023-04-24T09:33:33;22.70;69.20
2995;DHT22;35277;49.890;8.222;2023-04-24T09:36:01;22.70;69.30
2995;DHT22;35277;49.890;8.222;2023-04-24T09:38:35;22.70;69.20
2995;DHT22;35277;49.890;8.222;2023-04-24T09:41:05;22.70;69.30
2995;DHT22;35277;49.890;8.222;2023-04-24T09:43:33;22.70;69.30
2995;DHT22;35277;49.890;8.222;2023-04-24T09:46:05;22.70;69.30
2995;DHT22;35277;49.890;8.222;2023-04-24T09:48:33;22.70;69.30
2995;DHT22;35277;49.890;8.222;2023-04-24T09:51:04;22.70;69.20
2995;DHT22;35277;49.890;8.222;2023-04-24T09:53:35;22.80;69.50
2995;DHT22;35277;49.890;8.222;2023-04-24T09:56:07;22.80;69.40
2995;DHT22;35277;49.890;8.222;2023-04-24T09:58:36;22.80;69.40
2995;DHT22;35277;49.890;8.222;2023-04-24T10:01:04;22.80;69.40
2995;DHT22;35277;49.890;8.222;2023-04-24T10:03:33;22.70;69.30
2995;DHT22;35277;49.890;8.222;2023-04-24T10:06:02;22.70;69.30
2995;DHT22;35277;49.890;8.222;2023-04-24T10:08:36;22.70;69.20
2995;DHT22;35277;49.890;8.222;2023-04-24T10:11:05;22.70;69.10
2995;DHT22;35277;49.890;8.222;2023-04-24T10:13:33;22.70;69.10
2995;DHT22;35277;49.890;8.222;2023-04-24T10:16:03;22.70;69.00
2995;DHT22;35277;49.890;8.222;2023-04-24T10:18:32;22.70;69.00
2995;DHT22;35277;49.890;8.222;2023-04-24T10:21:00;22.80;69.00
2995;DHT22;35277;49.890;8.222;2023-04-24T10:23:30;22.80;69.00
2995;DHT22;35277;49.890;8.222;2023-04-24T10:26:00;22.80;69.00
2995;DHT22;35277;49.890;8.222;2023-04-24T10:28:28;22.80;69.00
2995;DHT22;35277;49.890;8.222;2023-04-24T10:30:58;22.80;68.90
2995;DHT22;35277;49.890;8.222;2023-04-24T10:33:27;22.80;68.90
2995;DHT22;35277;49.890;8.222;2023-04-24T10:35:56;22.80;68.90
2995;DHT22;35277;49.890;8.222;2023-04-24T10:38:26;22.70;68.80
2995;DHT22;35277;49.890;8.222;2023-04-24T10:41:07;22.80;69.00
2995;DHT22;35277;49.890;8.222;2023-04-24T10:43:35;22.80;69.00
2995;DHT22;35277;49.890;8.222;2023-04-24T10:46:04;22.70;68.90
2995;DHT22;35277;49.890;8.222;2023-04-24T10:48:33;22.70;69.00
2995;DHT22;35277;49.890;8.222;2023-04-24T10:51:02;22.70;69.10
2995;DHT22;35277;49.890;8.222;2023-04-24T10:53:30;22.70;69.00
2995;DHT22;35277;49.890;8.222;2023-04-24T10:56:05;22.70;69.10
2995;DHT22;35277;49.890;8.222;2023-04-24T10:58:37;22.70;69.10
2995;DHT22;35277;49.890;8.222;2023-04-24T11:01:07;22.70;69.10
2995;DHT22;35277;49.890;8.222;2023-04-24T11:03:35;22.70;69.30
2995;DHT22;35277;49.890;8.222;2023-04-24T11:06:06;22.70;69.70
2995;DHT22;35277;49.890;8.222;2023-04-24T11:08:39;22.70;70.20
2995;DHT22;35277;49.890;8.222;2023-04-24T11:11:12;22.80;71.50
2995;DHT22;35277;49.890;8.222;2023-04-24T11:14:03;22.80;71.80
2995;DHT22;35277;49.890;8.222;2023-04-24T11:16:34;22.80;72.80
2995;DHT22;35277;49.890;8.222;2023-04-24T11:19:04;22.80;73.10
2995;DHT22;35277;49.890;8.222;2023-04-24T11:21:39;22.90;73.50
2995;DHT22;35277;49.890;8.222;2023-04-24T11:24:38;22.80;73.70
2995;DHT22;35277;49.890;8.222;2023-04-24T11:27:17;22.90;74.20
2995;DHT22;35277;49.890;8.222;2023-04-24T11:29:49;22.90;74.20
2995;DHT22;35277;49.890;8.222;2023-04-24T11:32:26;22.90;74.40
2995;DHT22;35277;49.890;8.222;2023-04-24T11:34:55;22.90;74.50
2995;DHT22;35277;49.890;8.222;2023-04-24T11:37:24;22.90;74.50
2995;DHT22;35277;49.890;8.222;2023-04-24T11:39:53;22.90;74.30
2995;DHT22;35277;49.890;8.222;2023-04-24T11:42:23;22.90;74.10
2995;DHT22;35277;49.890;8.222;2023-04-24T11:44:53;22.90;73.70
2995;DHT22;35277;49.890;8.222;2023-04-24T11:47:28;22.90;73.40
2995;DHT22;35277;49.890;8.222;2023-04-24T11:49:58;22.90;73.10
2995;DHT22;35277;49.890;8.222;2023-04-24T11:52:27;22.90;73.00
2995;DHT22;35277;49.890;8.222;2023-04-24T11:54:55;22.90;72.90
2995;DHT22;35277;49.890;8.222;2023-04-24T11:57:25;22.80;72.70
2995;DHT22;35277;49.890;8.222;2023-04-24T11:59:55;22.80;72.70
2995;DHT22;35277;49.890;8.222;2023-04-24T12:02:23;22.80;72.70
2995;DHT22;35277;49.890;8.222;2023-04-24T12:04:52;22.90;72.40
2995;DHT22;35277;49.890;8.222;2023-04-24T12:07:22;22.80;72.10
2995;DHT22;35277;49.890;8.222;2023-04-24T12:09:56;22.80;71.80
2995;DHT22;35277;49.890;8.222;2023-04-24T12:12:27;22.80;71.60
2995;DHT22;35277;49.890;8.222;2023-04-24T12:14:56;22.80;71.30
2995;DHT22;35277;49.890;8.222;2023-04-24T12:17:26;22.70;70.80
2995;DHT22;35277;49.890;8.222;2023-04-24T12:19:58;22.70;70.40
2995;DHT22;35277;49.890;8.222;2023-04-24T12:22:26;22.70;70.10
2995;DHT22;35277;49.890;8.222;2023-04-24T12:25:02;22.70;70.10
2995;DHT22;35277;49.890;8.222;2023-04-24T12:27:33;22.70;70.00
2995;DHT22;35277;49.890;8.222;2023-04-24T12:30:04;22.70;69.90
2995;DHT22;35277;49.890;8.222;2023-04-24T12:32:32;22.70;69.70
2995;DHT22;35277;49.890;8.222;2023-04-24T12:35:00;22.70;69.70
2995;DHT22;35277;49.890;8.222;2023-04-24T12:37:33;22.70;69.70
2995;DHT22;35277;49.890;8.222;2023-04-24T12:40:04;22.70;69.50
2995;DHT22;35277;49.890;8.222;2023-04-24T12:42:36;22.70;69.40
2995;DHT22;35277;49.890;8.222;2023-04-24T12:45:09;22.80;69.40
2995;DHT22;35277;49.890;8.222;2023-04-24T12:47:39;22.80;69.40
2995;DHT22;35277;49.890;8.222;2023-04-24T12:50:08;22.80;69.40
2995;DHT22;35277;49.890;8.222;2023-04-24T12:52:36;22.90;69.50
2995;DHT22;35277;49.890;8.222;2023-04-24T12:55:06;22.80;69.30
2995;DHT22;35277;49.890;8.222;2023-04-24T12:57:36;22.90;69.40
2995;DHT22;35277;49.890;8.222;2023-04-24T13:00:06;22.90;69.50
2995;DHT22;35277;49.890;8.222;2023-04-24T13:02:35;22.90;69.50
2995;DHT22;35277;49.890;8.222;2023-04-24T13:05:03;22.90;69.50
2995;DHT22;35277;49.890;8.222;2023-04-24T13:07:31;22.90;69.50
2995;DHT22;35277;49.890;8.222;2023-04-24T13:09:59;22.90;69.40
2995;DHT22;35277;49.890;8.222;2023-04-24T13:12:27;22.90;69.40
2995;DHT22;35277;49.890;8.222;2023-04-24T13:14:56;22.90;69.30
2995;DHT22;35277;49.890;8.222;2023-04-24T13:17:24;22.90;70.20
2995;DHT22;35277;49.890;8.222;2023-04-24T13:19:53;22.90;69.30
2995;DHT22;35277;49.890;8.222;2023-04-24T13:22:21;22.90;69.30
2995;DHT22;35277;49.890;8.222;2023-04-24T13:24:49;22.90;69.30
2995;DHT22;35277;49.890;8.222;2023-04-24T13:27:18;22.90;69.30
2995;DHT22;35277;49.890;8.222;2023-04-24T13:29:46;22.90;69.30
2995;DHT22;35277;49.890;8.222;2023-04-24T13:32:15;22.90;69.20
2995;DHT22;35277;49.890;8.222;2023-04-24T13:34:43;22.90;69.20
2995;DHT22;35277;49.890;8.222;2023-04-24T13:37:10;22.90;69.20
2995;DHT22;35277;49.890;8.222;2023-04-24T13:39:38;23.00;69.40
2995;DHT22;35277;49.890;8.222;2023-04-24T13:42:07;23.00;69.80
2995;DHT22;35277;49.890;8.222;2023-04-24T13:44:35;23.00;70.20
2995;DHT22;35277;49.890;8.222;2023-04-24T13:47:03;23.00;70.60
2995;DHT22;35277;49.890;8.222;2023-04-24T13:49:33;23.00;70.90
2995;DHT22;35277;49.890;8.222;2023-04-24T13:52:02;23.00;71.20
2995;DHT22;35277;49.890;8.222;2023-04-24T13:54:29;23.00;71.30
2995;DHT22;35277;49.890;8.222;2023-04-24T13:56:58;23.10;71.50
2995;DHT22;35277;49.890;8.222;2023-04-24T13:59:27;23.00;71.30
2995;DHT22;35277;49.890;8.222;2023-04-24T14:01:54;23.00;71.10
2995;DHT22;35277;49.890;8.222;2023-04-24T14:04:22;23.00;70.90
2995;DHT22;35277;49.890;8.222;2023-04-24T14:06:52;23.00;70.90
2995;DHT22;35277;49.890;8.222;2023-04-24T14:09:20;23.00;70.80
2995;DHT22;35277;49.890;8.222;2023-04-24T14:11:47;23.00;70.70
2995;DHT22;35277;49.890;8.222;2023-04-24T14:14:15;23.00;70.60
2995;DHT22;35277;49.890;8.222;2023-04-24T14:16:43;23.00;70.50
2995;DHT22;35277;49.890;8.222;2023-04-24T14:19:11;23.00;70.50
2995;DHT22;35277;49.890;8.222;2023-04-24T14:21:38;23.00;70.50
2995;DHT22;35277;49.890;8.222;2023-04-24T14:24:08;23.00;70.40
2995;DHT22;35277;49.890;8.222;2023-04-24T14:26:36;23.00;71.30
2995;DHT22;35277;49.890;8.222;2023-04-24T14:29:04;23.00;70.40
2995;DHT22;35277;49.890;8.222;2023-04-24T14:31:40;23.00;70.40
2995;DHT22;35277;49.890;8.222;2023-04-24T14:34:09;23.00;70.40
2995;DHT22;35277;49.890;8.222;2023-04-24T14:36:37;23.00;70.30
2995;DHT22;35277;49.890;8.222;2023-04-24T14:39:04;23.00;70.40
2995;DHT22;35277;49.890;8.222;2023-04-24T14:41:35;23.00;70.30
2995;DHT22;35277;49.890;8.222;2023-04-24T14:44:03;23.00;70.30
2995;DHT22;35277;49.890;8.222;2023-04-24T14:46:32;23.00;70.20
2995;DHT22;35277;49.890;8.222;2023-04-24T14:49:00;23.00;70.20
2995;DHT22;35277;49.890;8.222;2023-04-24T14:51:27;23.00;70.20
2995;DHT22;35277;49.890;8.222;2023-04-24T14:53:56;23.10;70.40
2995;DHT22;35277;49.890;8.222;2023-04-24T14:56:24;23.10;70.30
2995;DHT22;35277;49.890;8.222;2023-04-24T14:58:53;23.10;70.40
2995;DHT22;35277;49.890;8.222;2023-04-24T15:01:21;23.10;70.40
2995;DHT22;35277;49.890;8.222;2023-04-24T15:03:49;23.10;70.40
2995;DHT22;35277;49.890;8.222;2023-04-24T15:06:17;23.10;70.40
2995;DHT22;35277;49.890;8.222;2023-04-24T15:08:46;23.10;70.40
2995;DHT22;35277;49.890;8.222;2023-04-24T15:11:16;23.10;70.50
2995;DHT22;35277;49.890;8.222;2023-04-24T15:13:44;23.10;70.50
2995;DHT22;35277;49.890;8.222;2023-04-24T15:16:14;23.10;70.50
2995;DHT22;35277;49.890;8.222;2023-04-24T15:18:42;23.10;70.50
2995;DHT22;35277;49.890;8.222;2023-04-24T15:21:10;23.20;70.50
2995;DHT22;35277;49.890;8.222;2023-04-24T15:23:39;23.20;70.40
2995;DHT22;35277;49.890;8.222;2023-04-24T15:26:06;23.30;70.40
2995;DHT22;35277;49.890;8.222;2023-04-24T15:28:34;23.30;70.30
2995;DHT22;35277;49.890;8.222;2023-04-24T15:31:02;23.30;70.20
2995;DHT22;35277;49.890;8.222;2023-04-24T15:33:31;23.40;70.20
2995;DHT22;35277;49.890;8.222;2023-04-24T15:35:59;23.40;70.10
2995;DHT22;35277;49.890;8.222;2023-04-24T15:38:26;23.40;70.10
2995;DHT22;35277;49.890;8.222;2023-04-24T15:40:54;23.40;70.00
2995;DHT22;35277;49.890;8.222;2023-04-24T15:43:22;23.30;69.90
2995;DHT22;35277;49.890;8.222;2023-04-24T15:45:50;23.30;70.00
2995;DHT22;35277;49.890;8.222;2023-04-24T15:48:18;23.30;70.00
2995;DHT22;35277;49.890;8.222;2023-04-24T15:50:47;23.30;70.10
2995;DHT22;35277;49.890;8.222;2023-04-24T15:53:15;23.30;70.10
2995;DHT22;35277;49.890;8.222;2023-04-24T15:55:47;23.20;70.00
2995;DHT22;35277;49.890;8.222;2023-04-24T15:58:15;23.20;70.00
2995;DHT22;35277;49.890;8.222;2023-04-24T16:00:43;23.20;70.00